Time;durP1;ratioP1;P1;durP2;ratioP2;P2;SDS_P1;SDS_P2;PMS_P1;PMS_P2;Temp;Humidity;BMP_temperature;BMP_pressure;BME280_temperature;BME280_humidity;BME280_pressure;Samples;Min_cycle;Max_cycle;Signal;HPM_P1;HPM_P2
2021/12/23 00:05:02;;;;;;;28.27;15.17;;;;;;;-3.17;75.44;100730.91;8552462;33;20157;-80
2021/12/23 00:10:08;;;;;;;29.90;15.07;;;;;;;-3.12;74.78;100717.69;8546319;33;20971;-78
2021/12/23 00:15:23;;;;;;;27.43;11.53;;;;;;;-3.11;75.30;100708.91;8534797;33;20604;-80
2021/12/23 00:25:54;;;;;;;31.00;16.40;;;;;;;-3.21;75.76;100664.44;8531528;33;20468;-79
2021/12/23 00:30:59;;;;;;;27.40;15.47;;;;;;;-3.23;75.89;100663.59;8534622;33;20532;-79
2021/12/23 00:36:07;;;;;;;31.33;15.63;;;;;;;-3.06;75.42;100660.63;8530138;33;20427;-79
2021/12/23 00:41:10;;;;;;;26.97;14.57;;;;;;;-3.03;75.51;100663.16;8523105;33;20324;-79
2021/12/23 00:46:13;;;;;;;32.20;14.47;;;;;;;-3.00;75.29;100667.50;8526219;33;20488;-79
2021/12/23 00:51:19;;;;;;;31.47;14.87;;;;;;;-3.03;74.92;100651.81;8530681;33;20420;-79
2021/12/23 00:56:23;;;;;;;33.13;15.33;;;;;;;-2.89;74.90;100643.63;8557695;33;20433;-80
2021/12/23 01:01:27;;;;;;;32.97;15.70;;;;;;;-2.84;74.70;100650.50;8587859;33;20421;-81
2021/12/23 01:06:34;;;;;;;35.70;16.07;;;;;;;-2.81;74.93;100637.28;8564450;33;20423;-79
2021/12/23 01:11:37;;;;;;;32.80;15.77;;;;;;;-2.75;74.73;100641.56;8561638;33;20199;-81
2021/12/23 01:17:11;;;;;;;30.77;15.47;;;;;;;-2.69;74.31;100633.53;8559263;33;20424;-79
2021/12/23 01:22:13;;;;;;;27.70;15.00;;;;;;;-2.70;74.78;100610.75;8557933;33;20202;-79
2021/12/23 01:27:17;;;;;;;28.93;15.23;;;;;;;-2.66;74.77;100596.66;8580501;33;20419;-79
2021/12/23 01:32:21;;;;;;;35.00;16.10;;;;;;;-2.71;75.02;100574.84;8572949;33;20499;-79
2021/12/23 01:37:26;;;;;;;32.97;15.97;;;;;;;-2.74;75.41;100573.16;8588875;33;20608;-79
2021/12/23 01:42:29;;;;;;;28.10;15.10;;;;;;;-2.74;75.73;100569.66;8565171;33;20446;-79
2021/12/23 01:47:38;;;;;;;33.53;17.00;;;;;;;-2.70;74.62;100573.09;8555878;33;20616;-80
2021/12/23 01:52:44;;;;;;;31.83;16.27;;;;;;;-2.75;74.93;100552.16;8555887;33;20141;-81
2021/12/23 01:57:50;;;;;;;37.17;17.23;;;;;;;-2.67;75.07;100531.78;8556780;33;20430;-80
2021/12/23 02:02:55;;;;;;;36.00;17.37;;;;;;;-2.72;75.02;100525.78;8555153;33;20241;-80
2021/12/23 02:08:00;;;;;;;30.80;16.80;;;;;;;-2.57;74.30;100530.69;8558354;33;20247;-80
2021/12/23 02:13:04;;;;;;;32.10;15.70;;;;;;;-2.46;74.51;100538.31;8561260;33;20415;-80
2021/12/23 02:18:10;;;;;;;35.67;17.07;;;;;;;-2.51;74.41;100533.16;8573770;33;20383;-77
2021/12/23 02:23:15;;;;;;;32.13;15.70;;;;;;;-2.46;74.17;100513.78;8576070;33;20387;-77
2021/12/23 02:28:19;;;;;;;38.33;16.70;;;;;;;-2.51;74.56;100501.59;8578127;33;20121;-77
2021/12/23 02:33:25;;;;;;;35.47;16.47;;;;;;;-2.47;74.71;100493.59;8576563;33;20416;-79
2021/12/23 02:38:30;;;;;;;31.60;16.77;;;;;;;-2.40;74.72;100485.53;8576938;33;20449;-78
2021/12/23 02:43:33;;;;;;;32.77;16.50;;;;;;;-2.37;74.60;100474.06;8576470;33;20402;-77
2021/12/23 02:48:39;;;;;;;31.23;16.83;;;;;;;-2.36;74.38;100489.81;8576991;33;20141;-78
2021/12/23 02:53:45;;;;;;;35.37;18.03;;;;;;;-2.32;74.15;100473.03;8581734;33;20133;-77
2021/12/23 02:58:48;;;;;;;30.13;16.70;;;;;;;-2.33;74.56;100439.75;8581620;33;20410;-77
2021/12/23 03:03:52;;;;;;;29.67;16.70;;;;;;;-2.32;74.17;100420.41;8581000;33;20413;-77
2021/12/23 03:09:00;;;;;;;35.97;17.70;;;;;;;-2.31;74.25;100414.22;8556323;33;20893;-80
2021/12/23 03:14:04;;;;;;;30.80;16.70;;;;;;;-2.24;74.33;100422.84;8551181;33;20644;-79
2021/12/23 03:24:15;;;;;;;37.87;17.57;;;;;;;-2.08;73.30;100450.47;8445779;33;20440;-78
2021/12/23 03:29:18;;;;;;;33.00;17.37;;;;;;;-2.12;73.64;100443.53;8433481;34;20157;-78
2021/12/23 03:34:21;;;;;;;30.83;16.33;;;;;;;-2.17;73.77;100439.31;8485783;33;20149;-79
2021/12/23 03:39:25;;;;;;;37.40;16.53;;;;;;;-2.10;73.73;100425.94;8484401;33;20217;-78
2021/12/23 03:44:28;;;;;;;29.10;15.80;;;;;;;-2.09;74.15;100419.75;8507348;33;20423;-78
2021/12/23 03:49:31;;;;;;;34.73;17.27;;;;;;;-2.07;73.74;100410.06;8484945;34;20477;-78
2021/12/23 03:54:36;;;;;;;33.60;16.93;;;;;;;-2.05;73.91;100406.53;8486999;33;20488;-78
2021/12/23 03:59:39;;;;;;;31.63;17.23;;;;;;;-2.04;74.26;100389.81;8486211;34;20216;-78
2021/12/23 04:04:43;;;;;;;33.97;17.40;;;;;;;-2.00;74.24;100392.31;8486700;33;20447;-78
2021/12/23 04:09:47;;;;;;;36.73;17.87;;;;;;;-1.98;74.08;100385.22;8485930;33;20188;-78
2021/12/23 04:14:51;;;;;;;36.47;17.67;;;;;;;-1.94;73.17;100372.84;8485443;33;20493;-78
2021/12/23 04:19:59;;;;;;;34.93;17.87;;;;;;;-2.00;73.62;100363.38;8484686;34;20549;-78
2021/12/23 04:25:04;;;;;;;31.77;16.70;;;;;;;-1.96;73.57;100346.56;8483554;34;20503;-78
2021/12/23 04:30:10;;;;;;;32.20;17.03;;;;;;;-1.98;74.10;100321.19;8479916;34;20409;-78
2021/12/23 04:35:13;;;;;;;37.83;19.23;;;;;;;-2.17;74.33;100308.56;8480127;34;20157;-78
2021/12/23 04:40:18;;;;;;;31.35;17.20;;;;;;;-2.03;73.81;100302.88;8480488;33;20436;-78
2021/12/23 04:45:21;;;;;;;35.57;18.23;;;;;;;-2.09;74.24;100276.75;8483968;34;20460;-78
2021/12/23 04:50:25;;;;;;;40.90;20.40;;;;;;;-2.13;74.00;100275.16;8507429;33;20416;-78
2021/12/23 04:55:30;;;;;;;33.83;18.30;;;;;;;-2.12;74.21;100243.50;8501848;34;20291;-78
2021/12/23 05:00:34;;;;;;;42.67;19.23;;;;;;;-2.08;74.58;100187.22;8483490;33;20420;-78
2021/12/23 05:05:37;;;;;;;37.03;19.40;;;;;;;-2.09;74.48;100188.13;8483052;34;20130;-78
2021/12/23 05:10:42;;;;;;;37.17;16.90;;;;;;;-2.13;74.05;100276.00;8483323;33;20972;-78
2021/12/23 05:15:45;;;;;;;34.67;17.33;;;;;;;-2.22;75.51;100310.50;8482456;33;20441;-78
2021/12/23 05:20:49;;;;;;;35.43;17.40;;;;;;;-2.07;74.68;100285.47;8483294;33;20613;-78
2021/12/23 05:25:54;;;;;;;32.43;16.73;;;;;;;-1.94;74.51;100278.06;8486252;33;20428;-79
2021/12/23 05:30:57;;;;;;;32.67;18.10;;;;;;;-1.87;74.29;100264.66;8485393;33;20626;-79
2021/12/23 05:36:00;;;;;;;33.67;17.20;;;;;;;-1.78;73.92;100271.41;8487707;33;20753;-78
2021/12/23 05:41:04;;;;;;;34.60;16.73;;;;;;;-1.73;73.48;100265.97;8487963;34;20177;-79
2021/12/23 05:46:07;;;;;;;37.60;17.43;;;;;;;-1.74;73.92;100241.44;8486379;34;20419;-78
2021/12/23 05:51:11;;;;;;;35.90;18.77;;;;;;;-1.76;74.08;100245.00;8484152;34;20416;-79
2021/12/23 05:56:15;;;;;;;36.77;17.70;;;;;;;-1.78;74.33;100233.66;8484304;34;20390;-78
2021/12/23 06:01:18;;;;;;;38.27;19.70;;;;;;;-1.82;74.05;100214.47;8466627;34;20150;-78
2021/12/23 06:06:21;;;;;;;40.90;20.47;;;;;;;-1.92;74.16;100208.66;8469034;34;20453;-78
2021/12/23 06:11:26;;;;;;;33.57;18.53;;;;;;;-1.78;73.98;100194.16;8480791;33;20442;-78
2021/12/23 06:16:31;;;;;;;47.03;21.93;;;;;;;-1.80;73.87;100177.56;8479583;33;20437;-79
2021/12/23 06:21:35;;;;;;;41.30;21.13;;;;;;;-1.93;73.90;100172.69;8479075;34;20425;-78
2021/12/23 06:26:39;;;;;;;41.93;19.87;;;;;;;-1.73;73.20;100192.25;8476009;33;20133;-78
2021/12/23 06:31:42;;;;;;;41.10;19.93;;;;;;;-1.67;73.13;100192.91;8500859;33;20497;-78
2021/12/23 06:36:46;;;;;;;38.83;19.17;;;;;;;-1.61;72.62;100183.94;8482987;34;20433;-79
2021/12/23 06:41:50;;;;;;;36.43;17.60;;;;;;;-1.59;72.83;100200.56;8484125;34;20249;-79
2021/12/23 06:46:54;;;;;;;37.07;19.73;;;;;;;-1.52;72.90;100209.09;8485697;33;20235;-79
2021/12/23 06:51:59;;;;;;;37.50;18.60;;;;;;;-1.55;72.53;100185.50;8481780;34;20513;-78
2021/12/23 06:57:04;;;;;;;38.17;19.70;;;;;;;-1.67;72.85;100158.66;8480686;34;20429;-79
2021/12/23 07:02:08;;;;;;;35.57;19.07;;;;;;;-1.67;73.25;100156.03;8484598;34;21063;-78
2021/12/23 07:07:18;;;;;;;36.80;19.50;;;;;;;-1.73;73.43;100134.31;8502357;33;20625;-78
2021/12/23 07:12:24;;;;;;;44.07;20.17;;;;;;;-1.75;73.92;100141.41;8485852;34;20257;-79
2021/12/23 07:17:27;;;;;;;42.87;20.67;;;;;;;-1.72;73.73;100152.69;8509223;33;20174;-78
2021/12/23 07:22:30;;;;;;;41.83;19.90;;;;;;;-1.64;73.29;100171.72;8479533;33;20134;-78
2021/12/23 07:27:35;;;;;;;43.83;21.47;;;;;;;-1.59;73.11;100161.06;8479362;34;20192;-79
2021/12/23 07:32:38;;;;;;;35.40;18.63;;;;;;;-1.60;73.12;100163.72;8478267;34;20421;-78
2021/12/23 07:37:42;;;;;;;40.50;19.77;;;;;;;-1.55;72.93;100167.06;8478796;34;20465;-78
2021/12/23 07:42:54;;;;;;;35.70;19.67;;;;;;;-1.54;72.66;100181.94;8483633;33;20144;-79
2021/12/23 07:48:00;;;;;;;41.70;20.17;;;;;;;-1.50;72.64;100166.00;8488850;34;20429;-78
2021/12/23 07:53:03;;;;;;;41.40;20.50;;;;;;;-1.57;72.76;100150.44;8488152;33;20133;-78
2021/12/23 07:58:07;;;;;;;43.40;20.47;;;;;;;-1.56;73.01;100157.41;8487380;33;20928;-78
2021/12/23 08:03:11;;;;;;;44.97;21.60;;;;;;;-1.55;73.14;100181.09;8508563;33;20509;-78
2021/12/23 08:08:14;;;;;;;39.40;18.27;;;;;;;-1.35;73.08;100175.13;8484000;34;20444;-78
2021/12/23 08:13:19;;;;;;;89.25;34.63;;;;;;;-0.95;73.05;100156.09;8484051;34;20415;-79
2021/12/23 08:18:22;;;;;;;51.90;24.57;;;;;;;-0.79;71.26;100145.84;8483001;33;20145;-78
2021/12/23 08:23:26;;;;;;;33.15;18.35;;;;;;;-0.75;70.85;100142.16;8482886;33;20603;-78
2021/12/23 08:28:31;;;;;;;35.95;17.33;;;;;;;-0.66;70.26;100118.97;8485139;33;20223;-79
2021/12/23 08:33:34;;;;;;;39.25;19.50;;;;;;;-0.66;70.19;100121.63;8489228;34;20130;-79
2021/12/23 08:38:37;;;;;;;28.40;17.23;;;;;;;-0.59;70.27;100109.91;8508811;33;20244;-79
2021/12/23 08:43:41;;;;;;;34.47;19.58;;;;;;;-0.76;69.51;100103.53;8476616;33;20247;-77
2021/12/23 08:48:44;;;;;;;36.05;18.25;;;;;;;-0.89;70.56;100101.41;8474087;34;20548;-78
2021/12/23 08:53:47;;;;;;;40.07;20.70;;;;;;;-1.09;70.54;100078.44;8467449;34;21066;-77
2021/12/23 08:58:53;;;;;;;45.27;22.37;;;;;;;-1.17;71.19;100065.56;8471679;34;21193;-77
2021/12/23 09:03:56;;;;;;;42.63;22.20;;;;;;;-1.11;71.35;100077.63;8473067;34;20551;-77
2021/12/23 09:08:59;;;;;;;39.90;21.20;;;;;;;-1.05;71.39;100062.44;8472926;34;20445;-77
2021/12/23 09:14:04;;;;;;;36.20;20.03;;;;;;;-1.06;70.94;100058.09;8474062;33;20436;-77
2021/12/23 09:19:09;;;;;;;42.07;19.87;;;;;;;-0.93;70.56;100063.75;8475182;33;20153;-78
2021/12/23 09:24:13;;;;;;;38.93;21.40;;;;;;;-0.81;70.08;100059.78;8494665;34;21106;-78
2021/12/23 09:32:40;;;;;;;41.90;21.97;;;;;;;-0.75;70.51;100075.34;8484036;34;20153;-78
2021/12/23 09:34:42;;;;;;;43.97;21.40;;;;;;;-0.70;70.40;100054.09;8480384;33;20149;-79
2021/12/23 09:39:55;;;;;;;45.30;22.73;;;;;;;-0.77;70.75;100056.97;8484511;34;20523;-78
2021/12/23 09:45:14;;;;;;;38.23;20.10;;;;;;;-0.61;70.36;100049.28;8483874;34;20316;-78
2021/12/23 09:50:22;;;;;;;39.43;22.17;;;;;;;-0.55;70.59;100042.91;8493053;34;20412;-77
2021/12/23 09:55:28;;;;;;;40.03;21.27;;;;;;;-0.44;70.55;100029.28;8496178;33;20130;-77
2021/12/23 10:00:36;;;;;;;44.70;20.60;;;;;;;-0.31;70.41;100017.28;8499678;34;20427;-79
2021/12/23 10:05:40;;;;;;;42.43;21.37;;;;;;;-0.35;69.10;100013.06;8490987;34;20459;-78
2021/12/23 10:10:49;;;;;;;35.87;19.73;;;;;;;-0.42;69.21;100022.16;8487260;34;20408;-78
2021/12/23 10:32:26;;;;;;;38.43;19.23;;;;;;;0.13;68.00;100003.97;8464159;33;20138;-78
2021/12/23 10:37:37;;;;;;;37.53;20.13;;;;;;;0.20;67.86;99999.28;8484665;33;20426;-79
2021/12/23 10:42:51;;;;;;;40.17;20.03;;;;;;;0.12;68.38;99987.25;8478599;33;20146;-79
2021/12/23 10:48:00;;;;;;;41.87;19.97;;;;;;;0.22;69.03;99973.63;8476825;33;20716;-80
2021/12/23 10:53:09;;;;;;;41.60;20.02;;;;;;;0.24;69.19;99970.00;8501500;33;20533;-76
2021/12/23 10:58:15;;;;;;;37.90;18.02;;;;;;;0.29;68.98;99956.59;8484163;34;20137;-78
2021/12/23 11:03:26;;;;;;;36.10;16.75;;;;;;;0.25;67.29;99942.69;8487928;34;20463;-79
2021/12/23 11:08:41;;;;;;;36.90;17.63;;;;;;;0.26;67.47;99912.66;8510096;33;20969;-77
2021/12/23 11:40:55;;;;;;;33.92;16.92;;;;;;;-0.10;71.45;99844.75;8492324;33;20486;-77
2021/12/23 11:46:00;;;;;;;37.33;16.40;;;;;;;-0.33;72.76;99847.56;8490420;34;20174;-77
2021/12/23 11:51:11;;;;;;;38.03;17.77;;;;;;;-0.07;74.22;99838.47;8513446;33;20498;-79
2021/12/23 11:56:16;;;;;;;33.10;16.67;;;;;;;-0.17;75.36;99806.34;8491482;34;20975;-79
2021/12/23 12:01:24;;;;;;;33.77;15.23;;;;;;;-0.40;77.18;99803.91;8489492;34;20601;-79
2021/12/23 12:06:40;;;;;;;36.60;15.80;;;;;;;-0.67;79.30;99796.28;8490539;33;20137;-80
2021/12/23 12:12:04;;;;;;;36.57;16.93;;;;;;;-0.52;80.51;99740.22;8489009;34;20413;-78
2021/12/23 12:31:05;;;;;;;32.60;16.43;;;;;;;-0.26;80.87;99758.41;8249697;34;20161;-77
2021/12/23 12:50:22;;;;;;;35.17;16.38;;;;;;;-0.23;80.15;99716.91;8410383;34;20193;-81
2021/12/23 12:55:28;;;;;;;35.27;17.50;;;;;;;-0.03;79.30;99696.59;8422692;34;20474;-81
2021/12/23 13:00:37;;;;;;;30.63;15.17;;;;;;;-0.13;74.21;99688.28;8449152;34;20248;-79
2021/12/23 13:05:44;;;;;;;31.50;14.53;;;;;;;0.06;74.18;99678.53;8448443;34;20424;-78
2021/12/23 13:10:49;;;;;;;29.50;15.30;;;;;;;0.27;72.92;99652.84;8431059;34;20523;-79
2021/12/23 13:16:20;;;;;;;24.73;10.57;;;;;;;0.17;71.56;99662.16;8427895;34;20444;-79
2021/12/23 13:21:24;;;;;;;23.47;10.77;;;;;;;0.35;71.19;99653.31;8399682;34;20158;-78
2021/12/23 13:26:27;;;;;;;21.90;11.43;;;;;;;0.52;70.42;99628.69;8422905;34;20933;-78
2021/12/23 13:31:34;;;;;;;34.70;15.07;;;;;;;0.81;70.25;99636.88;8436439;34;20434;-78
2021/12/23 13:36:45;;;;;;;20.40;11.53;;;;;;;0.71;69.45;99644.44;8481377;34;20468;-78
2021/12/23 13:41:52;;;;;;;30.08;13.05;;;;;;;0.88;68.99;99640.03;8479024;34;20495;-78
2021/12/23 13:47:02;;;;;;;24.48;12.95;;;;;;;0.97;69.40;99629.84;8474016;34;20444;-78
2021/12/23 13:52:09;;;;;;;26.35;12.75;;;;;;;0.85;68.80;99590.84;8477449;34;21166;-78
2021/12/23 13:57:16;;;;;;;26.65;12.60;;;;;;;0.89;69.46;99591.53;8479104;34;20783;-78
2021/12/23 14:02:25;;;;;;;26.23;13.43;;;;;;;1.14;69.26;99568.09;8507654;33;20476;-79
2021/12/23 14:07:32;;;;;;;24.15;11.70;;;;;;;1.28;68.68;99562.03;8490284;34;20527;-78
2021/12/23 14:12:50;;;;;;;21.77;10.93;;;;;;;1.38;68.57;99563.25;8482107;34;20472;-81
2021/12/23 14:17:59;;;;;;;26.63;13.73;;;;;;;1.58;69.63;99561.25;8482051;34;20468;-81
2021/12/23 14:23:13;;;;;;;29.10;13.23;;;;;;;1.69;69.12;99551.75;8505427;33;20424;-79
2021/12/23 14:28:20;;;;;;;24.80;13.55;;;;;;;1.78;70.57;99542.41;8485289;33;20134;-79
2021/12/23 14:33:28;;;;;;;29.48;15.15;;;;;;;1.78;70.11;99539.78;8474433;34;20505;-78
2021/12/23 14:38:36;;;;;;;23.00;12.60;;;;;;;1.82;70.16;99520.13;8474953;34;20428;-78
2021/12/23 14:44:01;;;;;;;22.98;12.40;;;;;;;1.92;69.63;99509.84;8473163;34;20418;-78
2021/12/23 14:49:25;;;;;;;26.95;12.55;;;;;;;1.93;70.41;99507.09;8477907;34;20428;-78
2021/12/23 14:54:28;;;;;;;24.63;12.63;;;;;;;2.00;69.02;99504.09;8478671;33;20461;-80
2021/12/23 14:59:31;;;;;;;20.65;12.45;;;;;;;2.16;71.50;99504.88;8477626;34;20403;-78
2021/12/23 15:04:37;;;;;;;26.40;14.23;;;;;;;2.02;71.61;99487.16;8478413;34;20410;-78
2021/12/23 15:09:42;;;;;;;29.17;14.07;;;;;;;1.99;73.86;99507.69;8477096;33;20442;-79
2021/12/23 15:14:47;;;;;;;22.02;13.07;;;;;;;1.93;74.87;99503.63;8478952;34;20418;-80
2021/12/23 15:19:54;;;;;;;28.38;13.90;;;;;;;2.04;73.24;99495.88;8483447;34;20443;-80
2021/12/23 15:25:02;;;;;;;29.30;17.20;;;;;;;2.14;71.27;99494.38;8471830;34;20169;-77
2021/12/23 15:30:17;;;;;;;56.92;35.63;;;;;;;2.21;70.75;99494.84;8472211;34;20201;-78
2021/12/23 15:35:25;;;;;;;34.78;19.23;;;;;;;2.42;70.21;99475.97;8474687;33;20423;-81
2021/12/23 15:40:33;;;;;;;30.45;18.77;;;;;;;2.42;69.95;99481.25;8497106;33;20471;-80
2021/12/23 15:45:39;;;;;;;27.30;12.32;;;;;;;2.23;69.73;99484.19;8484350;33;20443;-80
2021/12/23 15:50:49;;;;;;;14.40;8.13;;;;;;;2.06;70.77;99480.75;8480473;34;20715;-80
2021/12/23 15:55:54;;;;;;;19.48;9.43;;;;;;;2.22;70.24;99458.59;8473411;34;20630;-78
2021/12/23 16:00:57;;;;;;;23.45;11.70;;;;;;;2.40;70.61;99449.53;8488815;33;20531;-79
2021/12/23 16:11:23;;;;;;;27.25;13.27;;;;;;;2.58;70.77;99435.16;8470367;34;21153;-79
2021/12/23 16:16:26;;;;;;;25.30;13.35;;;;;;;2.69;70.48;99452.19;8475604;34;20183;-80
2021/12/23 16:21:31;;;;;;;26.67;18.23;;;;;;;2.87;71.06;99451.00;8506088;34;20491;-79
2021/12/23 16:26:34;;;;;;;28.83;16.73;;;;;;;2.77;71.25;99450.78;8507052;33;20141;-79
2021/12/23 16:31:38;;;;;;;25.27;13.50;;;;;;;2.76;71.37;99453.50;8479899;33;21003;-78
2021/12/23 16:36:43;;;;;;;30.60;16.50;;;;;;;2.64;71.31;99451.63;8496276;33;20427;-80
2021/12/23 16:41:46;;;;;;;22.20;11.75;;;;;;;2.59;71.57;99444.81;8479768;33;20200;-78
2021/12/23 16:46:51;;;;;;;28.48;14.23;;;;;;;2.59;72.26;99452.75;8481829;33;20173;-80
2021/12/23 16:51:55;;;;;;;21.13;12.90;;;;;;;2.44;72.54;99460.78;8497770;34;20173;-77
2021/12/23 17:02:19;;;;;;;31.33;16.25;;;;;;;2.52;72.79;99467.31;8495082;34;20146;-78
2021/12/23 17:07:24;;;;;;;38.42;19.15;;;;;;;2.82;72.75;99453.09;8496533;33;20425;-81
2021/12/23 17:12:27;;;;;;;33.40;17.55;;;;;;;2.74;73.07;99443.00;8496633;33;20141;-78
2021/12/23 17:17:33;;;;;;;29.35;14.25;;;;;;;2.64;73.27;99425.97;8483831;33;20536;-76
2021/12/23 17:22:38;;;;;;;26.98;14.32;;;;;;;2.50;74.71;99429.47;8495842;34;20463;-79
2021/12/23 17:27:41;;;;;;;32.45;16.45;;;;;;;2.42;76.18;99420.28;8511309;33;20150;-77
2021/12/23 17:32:45;;;;;;;31.90;17.42;;;;;;;2.29;77.71;99412.25;8494027;34;20200;-78
2021/12/23 17:37:55;;;;;;;29.70;15.45;;;;;;;2.10;79.23;99417.81;8503140;34;20688;-79
2021/12/23 17:42:58;;;;;;;36.22;17.25;;;;;;;2.15;79.71;99407.81;8504717;34;20236;-80
2021/12/23 17:48:01;;;;;;;31.40;15.15;;;;;;;1.91;80.91;99396.91;8503821;34;21014;-78
2021/12/23 17:53:10;;;;;;;29.42;15.23;;;;;;;2.11;80.29;99390.38;8497922;34;20448;-79
2021/12/23 17:58:18;;;;;;;34.30;18.08;;;;;;;2.39;80.12;99390.38;8491896;34;20562;-78
2021/12/23 18:03:22;;;;;;;43.50;18.73;;;;;;;2.29;80.57;99397.19;8490940;34;20452;-79
2021/12/23 18:08:28;;;;;;;42.38;18.83;;;;;;;2.18;81.02;99395.22;8495944;34;20486;-78
2021/12/23 18:13:31;;;;;;;35.42;18.55;;;;;;;2.09;81.06;99397.59;8491862;34;20231;-79
2021/12/23 18:18:35;;;;;;;27.90;12.23;;;;;;;2.21;81.24;99395.97;8491851;33;20463;-79
2021/12/23 18:23:39;;;;;;;33.63;16.80;;;;;;;2.40;81.34;99385.91;8491980;33;20138;-79
2021/12/23 18:28:42;;;;;;;37.05;17.02;;;;;;;2.24;82.12;99382.53;8489722;33;21003;-79
2021/12/23 18:33:46;;;;;;;36.15;18.95;;;;;;;2.32;82.30;99378.44;8491196;34;20451;-79
2021/12/23 18:38:53;;;;;;;43.35;18.67;;;;;;;2.37;82.59;99336.59;8481311;33;20414;-79
2021/12/23 18:43:59;;;;;;;34.80;15.75;;;;;;;2.40;81.58;99348.81;8479825;33;20153;-79
2021/12/23 18:49:03;;;;;;;55.78;25.20;;;;;;;2.54;81.83;99345.31;8481508;33;20494;-80
2021/12/23 18:54:08;;;;;;;34.00;15.02;;;;;;;2.36;82.31;99360.56;8488694;34;20975;-78
2021/12/23 18:59:12;;;;;;;52.10;21.55;;;;;;;2.58;82.31;99334.41;8479769;33;20134;-78
2021/12/23 19:09:46;;;;;;;45.97;21.17;;;;;;;2.34;83.48;99315.59;8480392;33;20426;-81
2021/12/23 19:14:49;;;;;;;57.25;27.23;;;;;;;2.55;82.80;99320.50;8482590;33;20406;-78
2021/12/23 19:19:52;;;;;;;46.28;22.48;;;;;;;2.66;82.67;99304.75;8490317;34;20542;-79
2021/12/23 19:24:57;;;;;;;56.38;27.50;;;;;;;2.55;83.21;99307.22;8490965;34;20428;-77
2021/12/23 19:30:00;;;;;;;54.47;24.40;;;;;;;2.63;83.32;99302.28;8483457;34;20169;-77
2021/12/23 19:35:04;;;;;;;44.22;22.27;;;;;;;2.51;83.77;99300.41;8503124;33;20192;-79
2021/12/23 19:40:11;;;;;;;53.45;25.30;;;;;;;2.80;82.45;99299.41;8477879;34;20196;-80
2021/12/23 19:45:14;;;;;;;67.15;29.10;;;;;;;2.82;83.00;99284.22;8476199;33;20149;-79
2021/12/23 19:50:17;;;;;;;48.35;21.00;;;;;;;2.66;83.94;99290.63;8473847;33;20457;-81
2021/12/23 19:55:22;;;;;;;49.50;22.08;;;;;;;2.51;84.73;99285.34;8475846;33;20431;-80
2021/12/23 20:00:28;;;;;;;61.95;27.67;;;;;;;2.77;84.64;99289.00;8475393;33;20542;-79
2021/12/23 20:05:32;;;;;;;57.78;25.55;;;;;;;2.80;84.73;99278.19;8476039;34;20445;-79
2021/12/23 20:10:37;;;;;;;61.90;28.13;;;;;;;2.90;83.96;99291.66;8477157;34;21164;-80
2021/12/23 20:15:40;;;;;;;90.65;39.03;;;;;;;2.79;84.42;99294.19;8481296;33;20146;-80
2021/12/23 20:20:46;;;;;;;47.17;22.70;;;;;;;2.59;86.57;99269.81;8486962;34;20442;-81
2021/12/23 20:25:51;;;;;;;59.60;24.17;;;;;;;2.47;88.84;99272.38;8492668;33;20418;-78
2021/12/23 20:30:54;;;;;;;48.78;22.30;;;;;;;2.53;89.22;99234.91;8498204;33;20130;-79
2021/12/23 20:35:57;;;;;;;63.08;27.58;;;;;;;2.76;88.75;99233.38;8397660;33;20182;-79
2021/12/23 20:41:02;;;;;;;77.20;37.10;;;;;;;2.40;90.50;99226.88;8476108;33;20408;-78
2021/12/23 20:46:05;;;;;;;70.15;35.92;;;;;;;2.69;89.87;99219.69;8476726;33;20145;-79
2021/12/23 20:51:09;;;;;;;37.67;16.45;;;;;;;2.54;90.60;99221.56;8477088;34;20424;-79
2021/12/23 20:56:17;;;;;;;59.33;26.90;;;;;;;2.75;90.57;99211.31;8478771;33;20431;-79
2021/12/23 21:01:24;;;;;;;43.25;19.33;;;;;;;2.71;90.76;99211.63;8480383;34;20216;-78
2021/12/23 21:06:28;;;;;;;55.20;27.08;;;;;;;2.79;90.56;99211.97;8480938;34;20141;-78
2021/12/23 21:11:40;;;;;;;53.53;25.73;;;;;;;2.77;91.18;99204.13;8488321;34;20337;-81
2021/12/23 21:16:43;;;;;;;45.58;19.45;;;;;;;2.67;92.58;99208.34;8507510;33;20410;-78
2021/12/23 21:21:47;;;;;;;47.00;22.75;;;;;;;2.88;91.89;99211.38;8494020;34;20136;-77
2021/12/23 21:26:51;;;;;;;41.47;19.42;;;;;;;2.95;91.20;99211.78;8496498;34;20160;-77
2021/12/23 21:31:55;;;;;;;35.65;17.73;;;;;;;2.92;91.48;99212.00;8499713;33;20457;-78
2021/12/23 21:36:58;;;;;;;29.80;14.57;;;;;;;2.75;92.48;99211.31;8507832;33;20191;-77
2021/12/23 21:42:03;;;;;;;26.55;13.20;;;;;;;2.76;93.17;99205.06;8515007;33;20568;-78
2021/12/23 21:47:07;;;;;;;23.30;11.07;;;;;;;2.83;100.00;99354.03;8505309;34;20435;-77
2021/12/23 21:52:11;;;;;;;20.95;9.07;;;;;;;2.89;100.00;99385.47;8504140;34;20227;-77
2021/12/23 21:57:15;;;;;;;12.93;8.40;;;;;;;2.66;100.00;99176.63;8499973;33;20134;-78
2021/12/23 22:02:18;;;;;;;17.90;9.02;;;;;;;2.81;100.00;99208.25;8492923;33;20526;-77
2021/12/23 22:07:22;;;;;;;18.55;11.70;;;;;;;2.85;98.14;99198.28;8475943;34;20138;-77
2021/12/23 22:12:26;;;;;;;14.82;7.60;;;;;;;2.83;97.37;99179.84;8485272;34;20165;-77
2021/12/23 22:17:29;;;;;;;13.48;6.68;;;;;;;3.04;96.29;99188.13;8475770;34;20444;-77
2021/12/23 22:22:32;;;;;;;17.17;9.50;;;;;;;3.06;96.42;99174.75;8472874;34;20413;-79
2021/12/23 22:27:37;;;;;;;17.90;8.88;;;;;;;2.96;96.22;99181.63;8472158;33;20588;-78
2021/12/23 22:32:40;;;;;;;9.88;5.32;;;;;;;2.98;96.72;99182.38;8470439;34;20344;-77
2021/12/23 22:37:45;;;;;;;11.57;7.35;;;;;;;3.12;96.37;99169.00;8474133;33;20225;-78
2021/12/23 22:42:49;;;;;;;11.30;5.15;;;;;;;3.14;96.02;99167.09;8505689;33;20145;-78
2021/12/23 22:47:53;;;;;;;10.55;7.18;;;;;;;3.05;95.76;99159.81;8488753;33;20443;-78
2021/12/23 22:52:57;;;;;;;14.48;8.65;;;;;;;3.25;95.39;99169.00;8488916;34;20185;-78
2021/12/23 22:58:01;;;;;;;15.00;8.00;;;;;;;3.31;95.56;99165.91;8479668;34;20148;-78
2021/12/23 23:03:12;;;;;;;12.73;7.75;;;;;;;3.41;95.42;99166.13;8477439;34;20853;-78
2021/12/23 23:08:15;;;;;;;18.17;10.85;;;;;;;3.41;96.18;99166.13;8477152;34;20927;-78
2021/12/23 23:13:31;;;;;;;15.65;9.27;;;;;;;3.52;94.63;99160.91;8479163;33;20425;-78
2021/12/23 23:18:35;;;;;;;15.88;8.10;;;;;;;3.34;96.55;99167.50;8477804;34;20145;-78
2021/12/23 23:23:53;;;;;;;14.23;9.50;;;;;;;3.57;95.18;99157.94;8475472;34;20407;-78
2021/12/23 23:39:55;;;;;;;11.93;7.60;;;;;;;3.47;96.18;99147.13;8473780;34;20153;-77
2021/12/23 23:45:00;;;;;;;10.32;6.63;;;;;;;3.60;96.42;99149.75;8476756;34;20474;-77
2021/12/23 23:50:05;;;;;;;11.40;7.03;;;;;;;3.54;96.16;99145.72;8476640;34;20153;-77
2021/12/23 23:55:10;;;;;;;11.88;7.15;;;;;;;3.82;95.51;99133.09;8476125;34;20524;-77
